Time;durP1;ratioP1;P1;durP2;ratioP2;P2;SDS_P1;SDS_P2;PMS_P1;PMS_P2;Temp;Humidity;BMP_temperature;BMP_pressure;BME280_temperature;BME280_humidity;BME280_pressure;Samples;Min_cycle;Max_cycle;Signal;HPM_P1;HPM_P2
2023/09/11 00:01:23;;;;;;;16.00;10.07;;;24.60;62.10;;;;;;5090980;28;20051;-61
2023/09/11 00:03:49;;;;;;;16.15;10.23;;;24.50;62.20;;;;;;5093043;28;20032;-61
2023/09/11 00:06:15;;;;;;;18.70;11.13;;;24.50;62.30;;;;;;5093190;28;20020;-62
2023/09/11 00:08:42;;;;;;;15.00;10.52;;;24.50;62.40;;;;;;5093190;28;20081;-61
2023/09/11 00:11:08;;;;;;;14.85;10.13;;;24.50;62.40;;;;;;5092753;28;20491;-61
2023/09/11 00:13:33;;;;;;;18.08;10.50;;;24.50;62.50;;;;;;5092989;28;20036;-61
2023/09/11 00:15:59;;;;;;;14.75;10.43;;;24.50;62.30;;;;;;5092952;28;20085;-61
2023/09/11 00:18:25;;;;;;;17.38;10.40;;;24.50;62.40;;;;;;5092937;28;20023;-61
2023/09/11 00:20:51;;;;;;;21.60;10.05;;;24.40;62.00;;;;;;5092926;28;20356;-60
2023/09/11 00:23:17;;;;;;;17.75;10.50;;;24.40;62.20;;;;;;5092236;28;20039;-60
2023/09/11 00:25:43;;;;;;;17.52;9.75;;;24.40;62.40;;;;;;5092420;28;20024;-61
2023/09/11 00:28:09;;;;;;;17.25;10.60;;;24.40;62.30;;;;;;5092739;28;20475;-61
2023/09/11 00:30:36;;;;;;;19.92;10.98;;;24.40;62.40;;;;;;5092327;28;20032;-61
2023/09/11 00:33:03;;;;;;;16.98;10.63;;;24.40;62.70;;;;;;5074545;28;20387;-61
2023/09/11 00:35:29;;;;;;;18.90;10.60;;;24.40;62.60;;;;;;5074784;28;20505;-61
2023/09/11 00:37:54;;;;;;;15.80;10.35;;;24.40;62.70;;;;;;5092599;28;20103;-61
2023/09/11 00:40:20;;;;;;;17.52;10.23;;;24.40;62.60;;;;;;5092061;28;20173;-61
2023/09/11 00:42:46;;;;;;;18.17;10.48;;;24.40;62.60;;;;;;5092411;28;20032;-61
2023/09/11 00:45:12;;;;;;;18.83;11.32;;;24.30;62.60;;;;;;5092501;28;20013;-61
2023/09/11 00:47:40;;;;;;;26.25;10.50;;;24.30;62.50;;;;;;5074392;28;20038;-61
2023/09/11 00:50:08;;;;;;;16.02;10.40;;;24.30;62.70;;;;;;5092086;28;20085;-61
2023/09/11 00:52:34;;;;;;;22.08;10.80;;;24.30;62.70;;;;;;5092411;28;20073;-61
2023/09/11 00:55:00;;;;;;;16.58;10.73;;;24.30;62.70;;;;;;5074121;28;20036;-61
2023/09/11 00:57:26;;;;;;;19.60;11.52;;;24.30;62.80;;;;;;5092371;28;20031;-61
2023/09/11 00:59:52;;;;;;;20.65;10.90;;;24.30;62.80;;;;;;5091848;28;20042;-61
2023/09/11 01:02:20;;;;;;;17.38;11.00;;;24.30;62.80;;;;;;5074135;28;20099;-61
2023/09/11 01:04:46;;;;;;;16.73;10.48;;;24.30;62.80;;;;;;5092000;28;20448;-61
2023/09/11 01:07:13;;;;;;;20.20;11.05;;;24.30;62.80;;;;;;5074151;28;20023;-61
2023/09/11 01:09:39;;;;;;;20.25;11.40;;;24.30;62.80;;;;;;5073959;28;20036;-61
2023/09/11 01:12:06;;;;;;;18.08;10.45;;;24.30;62.80;;;;;;5073987;28;20081;-61
2023/09/11 01:14:33;;;;;;;20.38;10.60;;;24.30;62.90;;;;;;5073952;28;20438;-62
2023/09/11 01:17:06;;;;;;;18.80;11.05;;;24.30;62.90;;;;;;5074001;28;20027;-61
2023/09/11 01:19:50;;;;;;;18.65;10.95;;;24.30;62.90;;;;;;5073768;28;20491;-61
2023/09/11 01:22:43;;;;;;;18.67;10.40;;;24.20;62.90;;;;;;5091946;28;20020;-61
2023/09/11 01:25:37;;;;;;;21.77;11.93;;;24.30;62.90;;;;;;5073813;28;20494;-61
2023/09/11 01:28:23;;;;;;;21.08;11.60;;;24.20;63.00;;;;;;5073377;28;20031;-61
2023/09/11 01:30:50;;;;;;;22.10;10.90;;;24.20;62.90;;;;;;5091572;28;20077;-61
2023/09/11 01:33:16;;;;;;;22.48;11.88;;;24.30;63.00;;;;;;5073601;28;20560;-61
2023/09/11 01:35:41;;;;;;;23.83;12.40;;;24.20;63.00;;;;;;5091519;28;20372;-58
2023/09/11 01:38:08;;;;;;;19.88;11.40;;;24.20;63.00;;;;;;5091680;28;20035;-59
2023/09/11 01:40:37;;;;;;;22.10;12.00;;;24.20;63.10;;;;;;5091388;28;20110;-61
2023/09/11 01:43:07;;;;;;;20.53;12.67;;;24.20;63.40;;;;;;5073587;28;20107;-61
2023/09/11 01:45:35;;;;;;;19.50;11.93;;;24.20;63.20;;;;;;5074049;28;20051;-61
2023/09/11 01:48:02;;;;;;;22.65;11.88;;;24.20;63.20;;;;;;5073535;28;20027;-60
2023/09/11 01:50:30;;;;;;;19.73;11.43;;;24.20;63.20;;;;;;5091393;28;20039;-58
2023/09/11 01:52:59;;;;;;;22.25;11.52;;;24.20;63.20;;;;;;5073451;28;20483;-62
2023/09/11 01:55:25;;;;;;;18.70;11.88;;;24.20;63.30;;;;;;5073391;28;20024;-60
2023/09/11 01:57:52;;;;;;;20.52;11.88;;;24.20;63.20;;;;;;5073186;28;20066;-61
2023/09/11 02:00:18;;;;;;;23.38;12.45;;;24.20;63.20;;;;;;5073194;28;20064;-62
2023/09/11 02:02:43;;;;;;;19.33;11.45;;;24.20;63.20;;;;;;5073297;28;20503;-61
2023/09/11 02:05:09;;;;;;;21.38;12.20;;;24.20;63.40;;;;;;5107812;23;20044;-59
2023/09/11 02:07:35;;;;;;;21.60;12.00;;;24.20;63.40;;;;;;5093089;28;20490;-59
2023/09/11 02:10:01;;;;;;;18.63;11.82;;;24.10;63.30;;;;;;5111341;28;20447;-60
2023/09/11 02:12:27;;;;;;;26.83;12.02;;;24.10;63.30;;;;;;5111634;28;20526;-57
2023/09/11 02:14:53;;;;;;;18.88;11.73;;;24.00;63.40;;;;;;5100540;28;20039;-56
2023/09/11 02:17:19;;;;;;;19.67;12.10;;;24.00;63.40;;;;;;5072897;28;20547;-56
2023/09/11 02:19:44;;;;;;;19.10;11.68;;;24.00;63.70;;;;;;5072927;28;20032;-57
2023/09/11 02:22:10;;;;;;;23.30;12.18;;;24.00;63.60;;;;;;5091295;28;20157;-58
2023/09/11 02:24:36;;;;;;;21.25;12.23;;;24.00;63.70;;;;;;5091026;28;20050;-55
2023/09/11 02:27:02;;;;;;;22.75;13.18;;;24.00;63.70;;;;;;5073034;28;20099;-57
2023/09/11 02:29:28;;;;;;;19.15;11.40;;;24.00;63.60;;;;;;5091083;28;20102;-56
2023/09/11 02:31:54;;;;;;;21.10;11.70;;;24.00;63.60;;;;;;5072864;28;20495;-58
2023/09/11 02:34:19;;;;;;;17.02;11.80;;;24.00;63.60;;;;;;5072964;28;20035;-55
2023/09/11 02:36:45;;;;;;;20.50;12.07;;;23.90;63.70;;;;;;5091080;28;20357;-56
2023/09/11 02:39:11;;;;;;;17.85;11.70;;;23.90;63.70;;;;;;5072939;28;20028;-56
2023/09/11 02:41:37;;;;;;;18.73;11.25;;;23.90;63.70;;;;;;5072877;28;20031;-57
2023/09/11 02:44:03;;;;;;;19.88;11.80;;;23.90;63.70;;;;;;5073022;28;20035;-56
2023/09/11 02:46:28;;;;;;;19.95;11.45;;;23.90;63.70;;;;;;5073085;28;20081;-60
2023/09/11 02:48:55;;;;;;;19.42;11.80;;;23.90;63.70;;;;;;5059551;28;20028;-55
2023/09/11 02:51:21;;;;;;;20.20;12.38;;;23.90;63.70;;;;;;5076449;28;20031;-60
2023/09/11 02:53:46;;;;;;;17.13;11.75;;;23.90;63.80;;;;;;5094465;28;20031;-54
2023/09/11 02:56:12;;;;;;;18.23;11.85;;;23.90;64.40;;;;;;5076526;28;20405;-56
2023/09/11 02:58:38;;;;;;;18.20;10.82;;;23.90;63.90;;;;;;5094475;28;20036;-57
2023/09/11 03:01:05;;;;;;;16.85;11.63;;;23.90;64.00;;;;;;5093714;28;20073;-52
2023/09/11 03:03:31;;;;;;;20.08;11.65;;;23.90;63.90;;;;;;5094473;28;20111;-56
2023/09/11 03:06:01;;;;;;;18.27;11.30;;;23.90;63.90;;;;;;5075973;28;20406;-59
2023/09/11 03:08:27;;;;;;;19.17;11.70;;;23.90;64.00;;;;;;5075931;28;20597;-56
2023/09/11 03:11:05;;;;;;;25.65;12.25;;;23.90;64.00;;;;;;5075944;28;20400;-60
2023/09/11 03:13:31;;;;;;;21.42;11.73;;;23.80;64.00;;;;;;5076288;28;20040;-57
2023/09/11 03:16:06;;;;;;;16.60;11.80;;;23.90;63.90;;;;;;5075644;28;20043;-60
2023/09/11 03:18:32;;;;;;;16.98;11.23;;;23.90;64.00;;;;;;5076138;28;20518;-60
2023/09/11 03:20:58;;;;;;;21.77;12.10;;;23.90;64.00;;;;;;5058903;28;20028;-59
2023/09/11 03:23:24;;;;;;;16.65;11.85;;;23.80;63.90;;;;;;5094140;28;20023;-58
2023/09/11 03:25:49;;;;;;;20.52;12.07;;;23.80;63.80;;;;;;5094015;28;20020;-60
2023/09/11 03:28:15;;;;;;;18.08;11.98;;;23.80;63.90;;;;;;5075871;28;20510;-59
2023/09/11 03:30:41;;;;;;;18.75;12.10;;;23.80;64.00;;;;;;5075563;28;20089;-57
2023/09/11 03:33:07;;;;;;;22.52;10.98;;;23.80;64.00;;;;;;5075829;28;20028;-59
2023/09/11 03:35:33;;;;;;;19.05;12.00;;;23.80;64.00;;;;;;5075745;28;20035;-59
2023/09/11 03:37:59;;;;;;;15.75;11.18;;;23.80;64.00;;;;;;5075864;28;20461;-59
2023/09/11 03:40:25;;;;;;;21.48;12.13;;;23.70;64.00;;;;;;5075331;28;20369;-53
2023/09/11 03:42:51;;;;;;;17.63;12.02;;;23.80;64.00;;;;;;5075645;28;20024;-60
2023/09/11 03:45:16;;;;;;;17.92;11.75;;;23.80;64.10;;;;;;5093705;28;20034;-59
2023/09/11 03:47:42;;;;;;;17.60;11.65;;;23.80;64.10;;;;;;5058832;28;20443;-59
2023/09/11 03:50:09;;;;;;;15.27;11.27;;;23.80;64.20;;;;;;5093231;28;20076;-55
2023/09/11 03:52:35;;;;;;;18.23;11.73;;;23.80;64.20;;;;;;5075427;28;20024;-55
2023/09/11 03:55:02;;;;;;;21.05;11.45;;;23.70;64.20;;;;;;5093408;28;20024;-59
2023/09/11 03:57:27;;;;;;;20.30;11.60;;;23.70;64.30;;;;;;5058972;28;20036;-59
2023/09/11 03:59:53;;;;;;;16.88;12.00;;;23.70;64.30;;;;;;5075031;28;20088;-60
2023/09/11 04:02:19;;;;;;;18.88;12.20;;;23.70;64.40;;;;;;5075329;28;20097;-60
2023/09/11 04:04:45;;;;;;;18.25;13.02;;;23.70;64.40;;;;;;5075126;28;20495;-60
2023/09/11 04:07:11;;;;;;;21.63;12.13;;;23.70;65.10;;;;;;5075140;28;20047;-60
2023/09/11 04:09:36;;;;;;;19.92;12.57;;;23.70;64.50;;;;;;5075019;28;20548;-60
2023/09/11 04:12:03;;;;;;;18.55;12.20;;;23.60;64.50;;;;;;5074835;28;20028;-59
2023/09/11 04:14:29;;;;;;;20.10;13.10;;;23.60;64.60;;;;;;5092942;28;20097;-58
2023/09/11 04:16:55;;;;;;;18.63;13.15;;;23.60;64.70;;;;;;5074961;28;20502;-60
2023/09/11 04:19:21;;;;;;;21.02;13.35;;;23.60;64.70;;;;;;5092919;28;20028;-60
2023/09/11 04:21:47;;;;;;;19.35;12.48;;;23.60;64.70;;;;;;5074530;28;20432;-60
2023/09/11 04:24:13;;;;;;;26.60;13.32;;;23.60;64.60;;;;;;5092996;28;20020;-59
2023/09/11 04:26:40;;;;;;;20.50;12.52;;;23.60;64.70;;;;;;5074645;28;20061;-60
2023/09/11 04:29:11;;;;;;;19.02;13.85;;;23.60;64.70;;;;;;5074691;28;20494;-58
2023/09/11 04:31:38;;;;;;;22.60;14.00;;;23.60;64.50;;;;;;5074476;28;20028;-60
2023/09/11 04:34:05;;;;;;;20.88;13.60;;;23.60;64.50;;;;;;5074512;28;20082;-59
2023/09/11 04:36:31;;;;;;;22.88;14.23;;;23.60;64.40;;;;;;5092592;28;20077;-57
2023/09/11 04:38:57;;;;;;;24.38;13.52;;;23.60;64.40;;;;;;5092604;28;20429;-60
2023/09/11 04:41:22;;;;;;;20.38;13.20;;;23.60;64.30;;;;;;5074071;28;20024;-59
2023/09/11 04:43:48;;;;;;;18.75;13.73;;;23.60;64.30;;;;;;5074495;28;20479;-60
2023/09/11 04:46:16;;;;;;;19.13;12.80;;;23.60;64.30;;;;;;5074520;28;20020;-57
2023/09/11 04:48:42;;;;;;;22.92;13.15;;;23.60;64.20;;;;;;5057775;28;20020;-60
2023/09/11 04:51:08;;;;;;;18.33;12.70;;;23.60;64.20;;;;;;5073931;28;20035;-59
2023/09/11 04:53:34;;;;;;;21.77;12.88;;;23.60;64.10;;;;;;5092241;28;20103;-60
2023/09/11 04:56:00;;;;;;;20.83;13.07;;;23.60;64.20;;;;;;5074097;28;20108;-59
2023/09/11 04:58:26;;;;;;;20.17;13.32;;;23.60;64.10;;;;;;5057508;28;20031;-59
2023/09/11 05:00:53;;;;;;;19.13;13.65;;;23.60;64.10;;;;;;5073759;28;20089;-60
2023/09/11 05:03:19;;;;;;;20.00;13.88;;;23.60;64.30;;;;;;5074011;28;20024;-57
2023/09/11 05:05:45;;;;;;;29.35;13.85;;;23.60;64.00;;;;;;5074092;28;20024;-58
2023/09/11 05:08:12;;;;;;;23.20;13.30;;;23.60;63.80;;;;;;5074091;28;20047;-57
2023/09/11 05:10:43;;;;;;;26.33;12.73;;;23.60;63.90;;;;;;5073238;28;20046;-60
2023/09/11 05:13:11;;;;;;;21.33;13.65;;;23.60;64.00;;;;;;5073562;28;20028;-57
2023/09/11 05:15:37;;;;;;;18.98;12.68;;;23.60;63.90;;;;;;5073843;28;20024;-59
2023/09/11 05:18:03;;;;;;;20.85;13.60;;;23.60;63.90;;;;;;5091863;28;20525;-58
2023/09/11 05:20:30;;;;;;;25.88;13.75;;;23.60;64.00;;;;;;5073357;28;20028;-59
2023/09/11 05:22:56;;;;;;;17.90;12.73;;;23.60;63.90;;;;;;5073837;28;20025;-59
2023/09/11 05:25:23;;;;;;;19.15;12.65;;;23.60;64.00;;;;;;5073816;28;20032;-55
2023/09/11 05:27:48;;;;;;;22.67;13.30;;;23.60;63.90;;;;;;5091752;28;20032;-59
2023/09/11 05:30:14;;;;;;;22.95;13.57;;;23.60;64.00;;;;;;5091355;28;20031;-59
2023/09/11 05:32:40;;;;;;;23.35;12.90;;;23.50;64.10;;;;;;5091437;28;20077;-58
2023/09/11 05:35:07;;;;;;;19.52;12.88;;;23.60;64.20;;;;;;5090946;28;20371;-59
2023/09/11 05:37:33;;;;;;;19.88;13.48;;;23.60;64.20;;;;;;5091170;28;20086;-58
2023/09/11 05:40:00;;;;;;;22.90;13.90;;;23.60;64.30;;;;;;5091268;28;20441;-57
2023/09/11 05:42:26;;;;;;;28.70;14.20;;;23.60;64.30;;;;;;5091469;28;20016;-58
2023/09/11 05:44:52;;;;;;;19.15;13.45;;;23.60;64.30;;;;;;5091536;28;20032;-60
2023/09/11 05:47:18;;;;;;;26.40;14.18;;;23.60;64.40;;;;;;5091632;28;20024;-60
2023/09/11 05:49:44;;;;;;;26.00;14.32;;;23.60;64.50;;;;;;5091326;28;20059;-60
2023/09/11 05:52:10;;;;;;;24.08;14.32;;;23.60;64.40;;;;;;5091610;28;20064;-60
2023/09/11 05:54:36;;;;;;;20.80;14.38;;;23.60;64.30;;;;;;5091396;28;20076;-60
2023/09/11 05:57:02;;;;;;;19.27;14.05;;;23.60;64.20;;;;;;5091469;28;20028;-59
2023/09/11 05:59:28;;;;;;;21.63;13.60;;;23.60;64.20;;;;;;5091339;28;20054;-60
2023/09/11 06:01:54;;;;;;;17.98;12.93;;;23.60;64.30;;;;;;5091194;28;20024;-60
2023/09/11 06:04:20;;;;;;;17.75;13.50;;;23.60;64.50;;;;;;5091153;28;20081;-60
2023/09/11 06:06:46;;;;;;;18.50;13.73;;;23.60;64.50;;;;;;5091588;28;20106;-60
2023/09/11 06:09:12;;;;;;;18.50;14.48;;;23.60;64.60;;;;;;5091423;28;20031;-60
2023/09/11 06:11:37;;;;;;;22.15;13.02;;;23.60;64.60;;;;;;5091508;28;20518;-60
2023/09/11 06:14:05;;;;;;;20.10;12.63;;;23.60;64.50;;;;;;5072833;28;20047;-60
2023/09/11 06:16:31;;;;;;;22.35;12.73;;;23.60;64.50;;;;;;5091289;28;20042;-59
2023/09/11 06:18:57;;;;;;;21.60;13.18;;;23.60;64.40;;;;;;5091127;28;20032;-59
2023/09/11 06:21:24;;;;;;;19.65;14.52;;;23.60;64.40;;;;;;5090943;28;20027;-58
2023/09/11 06:23:49;;;;;;;21.42;13.93;;;23.70;64.40;;;;;;5094920;28;20020;-55
2023/09/11 06:26:15;;;;;;;28.88;13.25;;;23.70;64.50;;;;;;5100765;28;20421;-55
2023/09/11 06:28:42;;;;;;;23.17;13.82;;;23.70;64.50;;;;;;5099237;28;20504;-57
2023/09/11 06:31:08;;;;;;;23.00;13.82;;;23.80;64.80;;;;;;5109864;28;20104;-54
2023/09/11 06:33:34;;;;;;;21.90;12.43;;;23.80;64.70;;;;;;5110856;28;20114;-57
2023/09/11 06:36:00;;;;;;;21.45;12.25;;;23.80;64.60;;;;;;5112163;28;20114;-57
2023/09/11 06:38:26;;;;;;;31.45;13.55;;;23.70;64.70;;;;;;5111096;28;20042;-57
2023/09/11 06:40:52;;;;;;;27.95;12.43;;;23.80;64.80;;;;;;5114100;28;20406;-57
2023/09/11 06:43:18;;;;;;;24.90;12.52;;;23.80;65.40;;;;;;5115232;28;20074;-61
2023/09/11 06:45:44;;;;;;;25.42;12.65;;;23.80;65.00;;;;;;5115085;28;20571;-61
2023/09/11 06:48:11;;;;;;;23.30;12.63;;;23.80;64.40;;;;;;5115196;28;20089;-62
2023/09/11 06:50:38;;;;;;;28.85;12.27;;;23.80;64.10;;;;;;5114586;28;20035;-60
2023/09/11 06:53:08;;;;;;;19.02;11.35;;;23.80;65.00;;;;;;5115018;28;20035;-61
2023/09/11 06:55:34;;;;;;;26.80;11.13;;;23.80;64.50;;;;;;5115046;28;20067;-61
2023/09/11 06:58:01;;;;;;;21.35;11.30;;;23.80;64.40;;;;;;5114953;28;20475;-61
2023/09/11 07:00:27;;;;;;;21.52;10.82;;;23.80;64.20;;;;;;5114419;28;20498;-59
2023/09/11 07:02:54;;;;;;;17.67;10.88;;;23.80;64.80;;;;;;5114913;28;20015;-59
2023/09/11 07:05:20;;;;;;;26.17;10.95;;;23.80;64.30;;;;;;5114493;28;20024;-61
2023/09/11 07:07:46;;;;;;;16.73;10.18;;;23.90;64.70;;;;;;5114770;28;20027;-61
2023/09/11 07:10:18;;;;;;;19.92;10.85;;;23.90;65.60;;;;;;5114628;28;20410;-59
2023/09/11 07:12:44;;;;;;;20.08;9.80;;;23.90;65.20;;;;;;5114676;28;20028;-60
2023/09/11 07:15:10;;;;;;;16.52;10.05;;;23.90;64.80;;;;;;5114509;28;20505;-57
2023/09/11 07:17:36;;;;;;;18.52;9.82;;;24.00;64.60;;;;;;5114575;28;20027;-60
2023/09/11 07:20:04;;;;;;;23.08;9.55;;;24.10;64.70;;;;;;5114216;28;20024;-60
2023/09/11 07:22:30;;;;;;;17.85;9.50;;;24.10;64.40;;;;;;5114484;28;20078;-59
2023/09/11 07:24:56;;;;;;;19.65;9.80;;;24.10;64.20;;;;;;5114301;28;20028;-59
2023/09/11 07:27:23;;;;;;;30.13;10.40;;;24.20;64.20;;;;;;5114253;28;20563;-60
2023/09/11 07:29:51;;;;;;;15.75;9.70;;;24.30;65.40;;;;;;5114132;28;20088;-57
2023/09/11 07:32:18;;;;;;;16.27;9.90;;;24.30;64.80;;;;;;5114392;28;20024;-57
2023/09/11 07:34:43;;;;;;;21.92;9.95;;;24.30;64.10;;;;;;5114295;28;20035;-60
2023/09/11 07:37:09;;;;;;;20.00;10.32;;;24.30;63.80;;;;;;5115134;28;20031;-57
2023/09/11 07:39:35;;;;;;;16.45;9.40;;;24.30;63.30;;;;;;5115638;28;20032;-55
2023/09/11 07:42:01;;;;;;;20.00;10.00;;;24.40;64.00;;;;;;5114624;28;20035;-60
2023/09/11 07:44:26;;;;;;;20.95;9.27;;;24.40;64.10;;;;;;5114029;28;20073;-59
2023/09/11 07:46:52;;;;;;;19.23;9.85;;;24.40;64.10;;;;;;5114037;28;20035;-59
2023/09/11 07:49:18;;;;;;;18.85;10.65;;;24.50;64.00;;;;;;5113985;28;20035;-59
2023/09/11 07:51:45;;;;;;;16.30;9.93;;;24.50;64.00;;;;;;5113690;28;20496;-59
2023/09/11 07:54:11;;;;;;;18.30;10.15;;;24.50;63.90;;;;;;5114385;28;20039;-60
2023/09/11 07:56:38;;;;;;;18.65;10.13;;;24.50;64.00;;;;;;5114199;28;20024;-59
2023/09/11 07:59:04;;;;;;;18.05;10.23;;;24.50;63.90;;;;;;5113661;28;20026;-59
2023/09/11 08:01:30;;;;;;;19.13;9.82;;;24.60;63.90;;;;;;5113156;28;20031;-60
2023/09/11 08:03:59;;;;;;;18.67;9.40;;;24.60;64.00;;;;;;5125330;23;20031;31
2023/09/11 08:06:25;;;;;;;17.67;10.13;;;24.60;63.90;;;;;;5015035;28;20063;-62
2023/09/11 08:08:51;;;;;;;19.23;10.23;;;24.60;64.00;;;;;;5044572;28;20286;-63
2023/09/11 08:11:19;;;;;;;19.80;10.32;;;24.60;63.80;;;;;;5052779;28;20076;-63
2023/09/11 08:13:46;;;;;;;22.73;10.13;;;24.60;63.90;;;;;;5052992;28;20312;-64
2023/09/11 08:16:16;;;;;;;19.60;10.70;;;24.60;63.80;;;;;;5071666;28;20082;-63
2023/09/11 08:18:43;;;;;;;18.00;10.23;;;24.60;63.80;;;;;;5072825;28;20025;-63
2023/09/11 08:21:09;;;;;;;17.92;9.88;;;24.60;63.80;;;;;;5072432;28;20036;-63
2023/09/11 08:23:35;;;;;;;19.00;9.98;;;24.60;63.80;;;;;;5072724;28;20090;-64
2023/09/11 08:26:01;;;;;;;19.15;9.77;;;24.60;63.90;;;;;;5072566;28;20024;-63
2023/09/11 08:28:28;;;;;;;16.20;9.45;;;24.60;64.00;;;;;;5072612;28;20020;-64
2023/09/11 08:30:54;;;;;;;18.17;9.57;;;24.60;64.10;;;;;;5072257;28;20040;-65
2023/09/11 08:33:24;;;;;;;16.25;9.93;;;24.60;64.00;;;;;;5072508;28;20059;-64
2023/09/11 08:35:49;;;;;;;;;;;24.60;64.10;;;;;;5072758;28;20024;-64
2023/09/11 08:38:18;;;;;;;17.85;9.95;;;24.70;64.20;;;;;;5072274;28;19961;-63
2023/09/11 08:40:45;;;;;;;16.85;9.60;;;24.60;64.70;;;;;;5071961;28;20119;-64
2023/09/11 08:43:11;;;;;;;19.35;10.65;;;24.70;64.10;;;;;;5072317;28;20099;-64
2023/09/11 08:45:40;;;;;;;18.40;10.05;;;24.70;64.00;;;;;;5071439;28;20028;-63
2023/09/11 08:48:11;;;;;;;19.98;10.93;;;24.70;64.10;;;;;;5072116;28;20082;-65
2023/09/11 08:50:44;;;;;;;17.95;10.15;;;24.70;64.00;;;;;;5071924;28;20058;-63
2023/09/11 08:53:13;;;;;;;22.17;10.05;;;24.70;63.70;;;;;;5072143;28;20028;-64
2023/09/11 08:55:40;;;;;;;17.88;10.60;;;24.70;63.80;;;;;;5071919;28;20174;-64
2023/09/11 08:58:11;;;;;;;16.00;9.32;;;24.70;63.90;;;;;;5072014;28;20391;-64
2023/09/11 09:00:37;;;;;;;17.13;9.05;;;24.70;63.70;;;;;;5071617;28;20036;-63
2023/09/11 09:03:05;;;;;;;18.23;9.25;;;24.80;63.90;;;;;;5071840;28;20488;-64
2023/09/11 09:05:32;;;;;;;17.10;9.20;;;24.80;63.90;;;;;;5071708;28;20403;-64
2023/09/11 09:07:59;;;;;;;18.38;9.77;;;24.70;63.70;;;;;;5071910;28;20054;-62
2023/09/11 09:10:25;;;;;;;18.70;10.02;;;24.80;63.90;;;;;;5071579;28;20035;-64
2023/09/11 09:12:52;;;;;;;18.13;9.63;;;24.80;63.60;;;;;;5071920;28;20028;-62
2023/09/11 09:15:20;;;;;;;17.70;9.45;;;24.80;64.10;;;;;;5071559;28;20040;-63
2023/09/11 09:17:46;;;;;;;18.73;9.45;;;24.80;63.80;;;;;;5072166;28;20039;-62
2023/09/11 09:20:13;;;;;;;20.80;9.57;;;24.80;63.90;;;;;;5071374;28;20223;-63
2023/09/11 09:22:56;;;;;;;17.02;8.65;;;24.80;63.80;;;;;;5071612;28;20589;-63
2023/09/11 09:25:23;;;;;;;14.18;9.02;;;24.80;63.90;;;;;;5071600;28;20020;-64
2023/09/11 09:27:49;;;;;;;15.05;9.60;;;24.80;63.60;;;;;;5071446;28;20052;-64
2023/09/11 09:30:26;;;;;;;15.25;8.88;;;24.80;64.00;;;;;;5071298;28;20043;-63
2023/09/11 09:32:53;;;;;;;17.15;9.45;;;24.80;64.10;;;;;;5071637;28;20028;-64
2023/09/11 09:35:26;;;;;;;17.67;8.90;;;24.80;64.00;;;;;;5071711;28;20468;-63
2023/09/11 09:37:53;;;;;;;16.85;9.35;;;24.80;63.90;;;;;;5071712;28;20108;-64
2023/09/11 09:40:31;;;;;;;15.50;8.75;;;24.80;63.70;;;;;;5070989;28;20032;-64
2023/09/11 09:43:01;;;;;;;15.85;8.32;;;24.80;63.40;;;;;;5071452;28;20020;-63
2023/09/11 09:45:39;;;;;;;18.30;9.00;;;24.80;63.40;;;;;;5071386;28;20029;-64
2023/09/11 09:48:16;;;;;;;15.57;8.60;;;24.80;63.30;;;;;;5071367;28;20111;-63
2023/09/11 09:51:01;;;;;;;14.27;8.73;;;24.80;63.30;;;;;;5070920;28;20036;-64
2023/09/11 09:53:36;;;;;;;16.20;8.60;;;24.80;63.30;;;;;;5053459;28;20484;-63
2023/09/11 09:56:04;;;;;;;13.80;8.48;;;24.80;63.30;;;;;;5072074;28;20025;-63
2023/09/11 09:58:35;;;;;;;14.80;9.25;;;24.80;63.10;;;;;;5075333;28;20039;-63
2023/09/11 10:01:10;;;;;;;15.77;9.10;;;24.80;63.30;;;;;;5074937;28;20032;-64
2023/09/11 10:03:41;;;;;;;16.80;8.90;;;24.80;63.10;;;;;;5057610;28;20028;-63
2023/09/11 10:06:09;;;;;;;13.43;8.40;;;24.80;63.00;;;;;;5075268;28;20028;-63
2023/09/11 10:08:36;;;;;;;15.35;8.60;;;24.80;63.00;;;;;;5075543;28;20025;-63
2023/09/11 10:11:02;;;;;;;16.92;8.73;;;24.80;63.20;;;;;;5074971;28;20435;-64
2023/09/11 10:13:32;;;;;;;14.15;8.25;;;24.80;63.40;;;;;;5075020;28;20028;-63
2023/09/11 10:15:57;;;;;;;;;;;24.80;63.40;;;;;;5075530;28;20450;-63
2023/09/11 10:18:24;;;;;;;14.63;8.10;;;24.80;63.40;;;;;;5075297;28;19999;-63
2023/09/11 10:20:50;;;;;;;14.13;8.35;;;24.90;63.40;;;;;;5074662;28;20115;-63
2023/09/11 10:23:16;;;;;;;13.15;8.27;;;24.80;63.40;;;;;;5075100;28;20103;-62
2023/09/11 10:25:49;;;;;;;14.38;8.40;;;24.90;63.50;;;;;;5074959;28;20461;-64
2023/09/11 10:28:35;;;;;;;17.05;8.32;;;24.90;63.60;;;;;;5075017;28;20035;-62
2023/09/11 10:31:20;;;;;;;12.52;8.45;;;24.90;63.40;;;;;;5074535;28;20060;-62
2023/09/11 10:33:50;;;;;;;16.35;8.43;;;24.80;63.30;;;;;;5074815;28;20036;-63
2023/09/11 10:36:20;;;;;;;13.52;8.02;;;24.90;63.30;;;;;;5074677;28;20032;-63
2023/09/11 10:38:46;;;;;;;14.27;8.60;;;24.90;63.40;;;;;;5074662;28;20029;-63
2023/09/11 10:41:13;;;;;;;14.55;8.20;;;24.80;63.20;;;;;;5073861;28;20029;-63
2023/09/11 10:43:39;;;;;;;12.10;7.82;;;24.90;63.30;;;;;;5074413;28;20025;-63
2023/09/11 10:46:37;;;;;;;15.65;8.57;;;24.80;63.10;;;;;;5074420;28;20524;-62
2023/09/11 10:49:17;;;;;;;15.38;7.32;;;24.80;63.20;;;;;;5012247;28;20482;-63
2023/09/11 10:51:44;;;;;;;16.25;8.35;;;24.80;63.20;;;;;;5012023;28;20048;-62
2023/09/11 10:54:15;;;;;;;15.32;8.23;;;24.80;63.20;;;;;;5012398;28;20448;-63
2023/09/11 10:56:42;;;;;;;15.65;8.00;;;24.80;63.20;;;;;;5012408;28;20033;-62
2023/09/11 10:59:09;;;;;;;11.38;7.68;;;24.80;63.10;;;;;;5012184;28;20557;-64
2023/09/11 11:01:36;;;;;;;14.18;7.45;;;24.80;63.10;;;;;;5011884;28;20040;-62
2023/09/11 11:04:06;;;;;;;12.45;7.97;;;24.80;62.90;;;;;;5012015;28;20036;-63
2023/09/11 11:06:33;;;;;;;;;;;24.80;63.10;;;;;;5012593;28;20565;-62
2023/09/11 11:09:00;;;;;;;14.63;7.72;;;24.80;63.10;;;;;;5011503;28;19948;-62
2023/09/11 11:11:27;;;;;;;15.07;7.72;;;24.80;63.00;;;;;;5011697;28;20121;-64
2023/09/11 11:14:18;;;;;;;14.65;8.30;;;24.80;63.10;;;;;;5012199;28;20030;-63
2023/09/11 11:17:03;;;;;;;11.82;7.45;;;24.80;63.10;;;;;;5011958;28;20544;-63
2023/09/11 11:19:31;;;;;;;12.77;7.85;;;24.80;63.10;;;;;;5011748;28;20544;-63
2023/09/11 11:21:57;;;;;;;9.90;6.97;;;24.80;63.10;;;;;;5011547;28;20053;-64
2023/09/11 11:24:24;;;;;;;14.60;7.38;;;24.80;63.10;;;;;;5017223;28;20026;-64
2023/09/11 11:26:55;;;;;;;11.82;7.47;;;24.80;63.10;;;;;;5073765;28;20032;-63
2023/09/11 11:29:21;;;;;;;13.20;7.68;;;24.80;63.20;;;;;;5073733;28;20079;-63
2023/09/11 11:31:51;;;;;;;13.05;7.53;;;24.80;63.20;;;;;;5073433;28;20053;-63
2023/09/11 11:34:22;;;;;;;15.13;7.78;;;24.80;63.20;;;;;;5073953;28;20044;-63
2023/09/11 11:36:50;;;;;;;12.27;7.63;;;24.80;63.10;;;;;;5073754;28;20028;-63
2023/09/11 11:39:16;;;;;;;13.18;8.40;;;24.80;63.20;;;;;;5073078;28;20411;-64
2023/09/11 11:41:43;;;;;;;13.25;7.20;;;24.80;63.20;;;;;;5073079;28;20024;-64
2023/09/11 11:44:09;;;;;;;13.75;7.50;;;24.80;63.20;;;;;;5073360;28;20021;-63
2023/09/11 11:46:35;;;;;;;14.73;7.40;;;24.80;63.10;;;;;;5073449;28;20021;-64
2023/09/11 11:49:01;;;;;;;15.32;7.55;;;24.80;63.10;;;;;;5073243;28;20021;-64
2023/09/11 11:51:30;;;;;;;12.27;7.80;;;24.80;63.10;;;;;;5073063;28;20082;-64
2023/09/11 11:53:56;;;;;;;11.02;7.68;;;24.80;63.00;;;;;;5073214;28;20056;-63
2023/09/11 11:56:24;;;;;;;12.77;6.93;;;24.80;63.00;;;;;;5073255;28;20031;-64
2023/09/11 11:58:55;;;;;;;13.30;7.80;;;24.80;62.90;;;;;;5073239;28;20029;-63
2023/09/11 12:01:20;;;;;;;14.25;7.80;;;24.80;62.90;;;;;;5072814;28;20480;-64
2023/09/11 12:03:49;;;;;;;14.65;7.22;;;24.80;62.80;;;;;;5073086;28;20044;-62
2023/09/11 12:06:15;;;;;;;11.95;7.70;;;24.80;62.80;;;;;;5072708;28;20029;-63
2023/09/11 12:08:44;;;;;;;12.65;8.15;;;24.80;62.80;;;;;;5073000;28;20479;-63
2023/09/11 12:11:10;;;;;;;13.50;7.43;;;24.80;62.80;;;;;;5072515;28;20027;-62
2023/09/11 12:13:37;;;;;;;11.85;7.40;;;24.80;62.80;;;;;;5072790;28;20024;-63
2023/09/11 12:16:03;;;;;;;13.93;7.47;;;24.80;62.80;;;;;;5072952;28;20028;-63
2023/09/11 12:18:30;;;;;;;11.88;7.45;;;24.80;62.70;;;;;;5072821;28;20036;-62
2023/09/11 12:21:06;;;;;;;11.02;7.55;;;24.80;62.60;;;;;;5071271;28;20480;-63
2023/09/11 12:23:32;;;;;;;14.25;7.57;;;24.80;62.60;;;;;;5072734;28;20028;-62
2023/09/11 12:26:01;;;;;;;13.77;7.75;;;24.80;62.70;;;;;;5072412;28;20537;-64
2023/09/11 12:28:27;;;;;;;12.75;7.85;;;24.80;62.60;;;;;;5072590;28;20029;-63
2023/09/11 12:30:54;;;;;;;14.88;7.35;;;24.80;62.60;;;;;;5072266;28;20507;-62
2023/09/11 12:33:25;;;;;;;12.15;7.30;;;24.80;62.50;;;;;;5072305;28;20025;-62